»·PEaware :: DAL882 KSLC-KPDX

DAL882 :: KSLC-KPDX

FLIGHT INFORMATION

Flight Status: Arrived
Operator:
Delta Air Lines
More flights by this operator :: More flights under this callsign
Pilot: Joe P. (13940)
Aircraft: BOEING 737-700
(B737)
More flights by this aircraft type
Origin: KSLC Salt Lake City Intl
United States
Destination: KPDX Portland Intl
United States
More flights between these airports :: More routes between these airports
Route: +CGULL1 TWF J15 BOI J163 BKE JOTBA HHOOD4
File this flight plan on PilotEdge
Remarks: KSEA -PBN / A1B1C1D1L1O1S1 NAV / RNVD1E2A1 DOF / 181105 REG / N389DA EET / KZSE0100 RVR / 200 PER / C
Altitude:
(Current/Filed)
240ft
Speed:
(Current/Filed)
478kts
Departed: 04-Nov-18 04:49 PM
Arrived: 04-Nov-18 06:42 PM
Distance/Time
Traveled:
546nm/1:52
Distance/Time
To Go:
Arrived

Flight Plot

Page will automatically refresh every two minutes.

Flight plan parsing failed; only flown route is shown


Map Options




Map Legend


Flown Route
Filed Route
Departure Airport
Arrival Airport
Navaid (VOR, NDB)
Fix

Horizontal Profiles

Position Reports

Time Latitude Longitude Heading Altitude Ground
Speed
04-Nov-18 16:05 40.788533 -111.980747 280 4235ft 0kts
04-Nov-18 16:06 40.788533 -111.980747 280 4235ft 0kts
04-Nov-18 16:07 40.788533 -111.980747 280 4235ft 0kts
04-Nov-18 16:08 40.788533 -111.980747 280 4235ft 0kts
04-Nov-18 16:09 40.788533 -111.980747 280 4235ft 0kts
04-Nov-18 16:10 40.788533 -111.980747 280 4235ft 0kts
04-Nov-18 16:11 40.788533 -111.980747 280 4235ft 0kts
04-Nov-18 16:12 40.788533 -111.980747 280 4235ft 0kts
04-Nov-18 16:13 40.788533 -111.980747 280 4235ft 0kts
04-Nov-18 16:14 40.788533 -111.980747 280 4235ft 0kts
04-Nov-18 16:15 40.788533 -111.980747 280 4235ft 0kts
04-Nov-18 16:16 40.788533 -111.980747 280 4235ft 0kts
04-Nov-18 16:17 40.788533 -111.980747 280 4235ft 0kts
04-Nov-18 16:18 40.788533 -111.980747 280 4235ft 0kts
04-Nov-18 16:19 40.788533 -111.980747 280 4235ft 0kts
04-Nov-18 16:20 40.788533 -111.980747 280 4235ft 0kts
04-Nov-18 16:20 40.788533 -111.980747 280 4235ft 0kts
04-Nov-18 16:22 40.788533 -111.980747 280 4235ft 0kts
04-Nov-18 16:22 40.788533 -111.980747 280 4235ft 0kts
04-Nov-18 16:24 40.788533 -111.980747 280 4235ft 0kts
04-Nov-18 16:24 40.788533 -111.980747 280 4235ft 0kts
04-Nov-18 16:25 40.788533 -111.980747 280 4235ft 0kts
04-Nov-18 16:26 40.788533 -111.980747 280 4235ft 0kts
04-Nov-18 16:27 40.788533 -111.980747 280 4235ft 0kts
04-Nov-18 16:28 40.788533 -111.980747 280 4235ft 0kts
04-Nov-18 16:29 40.788533 -111.980747 280 4235ft 0kts
04-Nov-18 16:30 40.788533 -111.980747 280 4235ft 0kts
04-Nov-18 16:31 40.788533 -111.980747 280 4235ft 0kts
04-Nov-18 16:32 40.788533 -111.980747 280 4235ft 0kts
04-Nov-18 16:34 40.788533 -111.980747 280 4235ft 0kts
04-Nov-18 16:35 40.788533 -111.980747 280 4235ft 0kts
04-Nov-18 16:36 40.788533 -111.980747 280 4235ft 0kts
04-Nov-18 16:37 40.788468 -111.980300 280 4235ft 2kts
04-Nov-18 16:38 40.788362 -111.979584 280 4235ft 0kts
04-Nov-18 16:39 40.788362 -111.979584 280 4235ft 0kts
04-Nov-18 16:40 40.788362 -111.979584 280 4235ft 0kts
04-Nov-18 16:41 40.788362 -111.979584 280 4235ft 0kts
04-Nov-18 16:42 40.788362 -111.979584 280 4235ft 0kts
04-Nov-18 16:43 40.788362 -111.979584 280 4235ft 0kts
04-Nov-18 16:44 40.788363 -111.979586 280 4235ft 0kts
04-Nov-18 16:45 40.788665 -111.979875 356 4235ft 7kts
04-Nov-18 16:46 40.790348 -111.978075 83 4235ft 4kts
04-Nov-18 16:47 40.793907 -111.977829 355 4235ft 22kts
04-Nov-18 16:48 40.799718 -111.978271 354 4235ft 20kts
04-Nov-18 16:49 40.805557 -111.978967 353 4234ft 17kts
04-Nov-18 16:50 40.807524 -111.978412 84 4235ft 3kts
04-Nov-18 16:51 40.807038 -111.976812 174 4235ft 0kts
04-Nov-18 16:52 40.779360 -111.973998 178 4874ft 183kts
04-Nov-18 16:53 40.730175 -111.986676 177 7466ft 216kts
04-Nov-18 16:54 40.688882 -112.045907 264 9499ft 251kts
04-Nov-18 16:55 40.726663 -112.120214 311 12537ft 269kts
04-Nov-18 16:56 40.786865 -112.198610 312 14230ft 329kts
04-Nov-18 16:57 40.852416 -112.284301 312 17300ft 334kts
04-Nov-18 16:58 40.918914 -112.371537 312 20107ft 338kts
04-Nov-18 16:59 40.987302 -112.457789 314 22571ft 342kts
04-Nov-18 17:00 41.056489 -112.545931 313 23963ft 347kts
04-Nov-18 17:01 41.124954 -112.635292 313 23974ft 345kts
04-Nov-18 17:02 41.193228 -112.725110 313 23973ft 344kts
04-Nov-18 17:03 41.261199 -112.814896 313 23974ft 344kts
04-Nov-18 17:04 41.329410 -112.904191 312 23971ft 344kts
04-Nov-18 17:05 41.397885 -112.993115 314 23970ft 344kts
04-Nov-18 17:06 41.466052 -113.082388 312 23970ft 342kts
04-Nov-18 17:07 41.533839 -113.171189 313 23970ft 342kts
04-Nov-18 17:08 41.601940 -113.260214 313 23972ft 341kts
04-Nov-18 17:09 41.669391 -113.348941 313 23965ft 340kts
04-Nov-18 17:10 41.736452 -113.437771 313 23959ft 339kts
04-Nov-18 17:11 41.803321 -113.526631 313 23958ft 337kts
04-Nov-18 17:12 41.869942 -113.615096 312 23958ft 337kts
04-Nov-18 17:13 41.936756 -113.704098 313 23957ft 336kts
04-Nov-18 17:14 42.005792 -113.796967 313 24102ft 366kts
04-Nov-18 17:15 42.072967 -113.888145 312 27058ft 328kts
04-Nov-18 17:16 42.138409 -113.977687 312 28043ft 341kts
04-Nov-18 17:17 42.203150 -114.066880 312 30052ft 325kts
04-Nov-18 17:18 42.265875 -114.153876 311 31486ft 321kts
04-Nov-18 17:19 42.319488 -114.250244 310 31984ft 322kts
04-Nov-18 17:20 42.379771 -114.340352 310 31995ft 323kts
04-Nov-18 17:21 42.440275 -114.430471 310 31999ft 324kts
04-Nov-18 17:22 42.500824 -114.521711 309 32000ft 326kts
04-Nov-18 17:23 42.560542 -114.614200 309 31995ft 327kts
04-Nov-18 17:24 42.620466 -114.707435 309 31990ft 328kts
04-Nov-18 17:25 42.680633 -114.801431 309 31988ft 329kts
04-Nov-18 17:26 42.740995 -114.895303 309 31980ft 330kts
04-Nov-18 17:27 42.801494 -114.989620 309 31974ft 330kts
04-Nov-18 17:28 42.861808 -115.084189 309 31973ft 330kts
04-Nov-18 17:29 42.922082 -115.179100 309 31972ft 330kts
04-Nov-18 17:30 42.982181 -115.274085 309 31973ft 330kts
04-Nov-18 17:31 43.042174 -115.369229 309 31974ft 331kts
04-Nov-18 17:32 43.102260 -115.464874 309 31980ft 332kts
04-Nov-18 17:33 43.163224 -115.562314 309 31980ft 339kts
04-Nov-18 17:34 43.224126 -115.659630 309 31977ft 336kts
04-Nov-18 17:35 43.284506 -115.756828 309 31982ft 332kts
04-Nov-18 17:36 43.344615 -115.853649 309 31976ft 339kts
04-Nov-18 17:37 43.405198 -115.951337 309 31974ft 333kts
04-Nov-18 17:38 43.465555 -116.049482 309 31969ft 336kts
04-Nov-18 17:39 43.525557 -116.147519 309 31972ft 333kts
04-Nov-18 17:40 43.590442 -116.238413 315 31974ft 337kts
04-Nov-18 17:41 43.661078 -116.324552 315 31968ft 334kts
04-Nov-18 17:42 43.730575 -116.409892 315 31972ft 337kts
04-Nov-18 17:43 43.800173 -116.495591 314 31971ft 335kts
04-Nov-18 17:44 43.870257 -116.581840 315 31976ft 334kts
04-Nov-18 17:45 43.939728 -116.667363 314 31981ft 336kts
04-Nov-18 17:46 44.008960 -116.753200 314 31977ft 334kts
04-Nov-18 17:47 44.078288 -116.839417 315 31975ft 337kts
04-Nov-18 17:48 44.147901 -116.926288 315 31980ft 331kts
04-Nov-18 17:49 44.216595 -117.012334 314 31979ft 333kts
04-Nov-18 17:50 44.285227 -117.098662 314 31979ft 327kts
04-Nov-18 17:51 44.352489 -117.183579 314 31980ft 326kts
04-Nov-18 17:52 44.419573 -117.268515 314 31985ft 325kts
04-Nov-18 17:53 44.486477 -117.353485 314 31987ft 324kts
04-Nov-18 17:54 44.553182 -117.438477 314 31989ft 324kts
04-Nov-18 17:55 44.619970 -117.523608 314 31990ft 324kts
04-Nov-18 17:56 44.686645 -117.608929 314 31991ft 325kts
04-Nov-18 17:57 44.753148 -117.694693 314 31990ft 325kts
04-Nov-18 17:58 44.819378 -117.781868 307 31990ft 325kts
04-Nov-18 17:59 44.848225 -117.903736 289 31989ft 333kts
04-Nov-18 18:00 44.867583 -118.030657 288 31996ft 337kts
04-Nov-18 18:01 44.885436 -118.160265 288 32004ft 332kts
04-Nov-18 18:02 44.902220 -118.288289 287 32012ft 331kts
04-Nov-18 18:03 44.919228 -118.416309 287 32031ft 332kts
04-Nov-18 18:04 44.935725 -118.544445 287 32031ft 332kts
04-Nov-18 18:05 44.951962 -118.672979 287 32032ft 332kts
04-Nov-18 18:06 44.967978 -118.801544 287 32033ft 332kts
04-Nov-18 18:07 44.983836 -118.930293 287 32035ft 332kts
04-Nov-18 18:08 44.999508 -119.058796 287 32039ft 331kts
04-Nov-18 18:09 45.014993 -119.187131 287 32036ft 331kts
04-Nov-18 18:10 45.030318 -119.315352 287 32042ft 330kts
04-Nov-18 18:11 45.045450 -119.443246 287 32052ft 329kts
04-Nov-18 18:12 45.060435 -119.571216 287 32051ft 329kts
04-Nov-18 18:13 45.075268 -119.699122 287 32051ft 328kts
04-Nov-18 18:14 45.089940 -119.826947 286 32052ft 329kts
04-Nov-18 18:15 45.104451 -119.954687 286 32054ft 329kts
04-Nov-18 18:16 45.117962 -120.074295 287 32056ft 326kts
04-Nov-18 18:17 45.132371 -120.201061 286 32058ft 326kts
04-Nov-18 18:18 45.146186 -120.327577 286 31480ft 318kts
04-Nov-18 18:19 45.159291 -120.449235 286 29381ft 305kts
04-Nov-18 18:20 45.184806 -120.558583 299 27487ft 292kts
04-Nov-18 18:21 45.223653 -120.664924 299 25494ft 303kts
04-Nov-18 18:22 45.263201 -120.768332 300 23549ft 294kts
04-Nov-18 18:23 45.301687 -120.869211 299 21671ft 288kts
04-Nov-18 18:24 45.340594 -120.971613 299 19789ft 305kts
04-Nov-18 18:25 45.380673 -121.077295 299 17849ft 302kts
04-Nov-18 18:26 45.420916 -121.183240 298 15824ft 301kts
04-Nov-18 18:26 45.443467 -121.276598 287 14343ft 298kts
04-Nov-18 18:28 45.468750 -121.406591 287 12948ft 275kts
04-Nov-18 18:29 45.489185 -121.509008 288 11934ft 255kts
04-Nov-18 18:30 45.507851 -121.604131 287 10975ft 245kts
04-Nov-18 18:30 45.523181 -121.682630 287 10182ft 246kts
04-Nov-18 18:31 45.532156 -121.777659 274 9167ft 240kts
04-Nov-18 18:32 45.535333 -121.874581 274 7567ft 247kts
04-Nov-18 18:33 45.538981 -121.973254 275 5968ft 250kts
04-Nov-18 18:34 45.533480 -122.060204 242 5837ft 201kts
04-Nov-18 18:35 45.502849 -122.121025 239 5827ft 174kts
04-Nov-18 18:36 45.475791 -122.175809 243 5410ft 170kts
04-Nov-18 18:37 45.460065 -122.239588 285 3979ft 169kts
04-Nov-18 18:38 45.479263 -122.299023 297 4054ft 173kts
04-Nov-18 18:39 45.500799 -122.354838 298 3322ft 152kts
04-Nov-18 18:40 45.521106 -122.406828 298 2534ft 151kts
04-Nov-18 18:41 45.541745 -122.459647 298 1723ft 153kts
04-Nov-18 18:43 45.562134 -122.511868 298 923ft 149kts
04-Nov-18 18:44 45.582065 -122.563285 299 115ft 143kts
04-Nov-18 18:45 45.592072 -122.589557 272 26ft 20kts
04-Nov-18 18:46 45.592120 -122.590175 280 26ft 0kts
04-Nov-18 18:47 45.592125 -122.591275 269 26ft 11kts
04-Nov-18 18:48 45.591348 -122.594090 204 26ft 2kts
04-Nov-18 18:49 45.591265 -122.594143 203 26ft 0kts
04-Nov-18 18:50 45.591265 -122.594143 203 26ft 0kts
04-Nov-18 18:51 45.591265 -122.594143 203 26ft 0kts
04-Nov-18 18:52 45.591265 -122.594143 203 26ft 0kts
04-Nov-18 18:53 45.591265 -122.594143 203 26ft 0kts
04-Nov-18 18:54 45.591265 -122.594143 203 26ft 0kts
04-Nov-18 18:55 45.591265 -122.594143 203 26ft 0kts
04-Nov-18 18:56 45.591265 -122.594143 203 26ft 0kts
04-Nov-18 18:57 45.591265 -122.594143 203 26ft 0kts
04-Nov-18 18:58 45.591265 -122.594143 203 26ft 0kts
04-Nov-18 18:59 45.591265 -122.594143 203 26ft 0kts

Navigation Log

Ident Type
Flight plan parsing failed, navigation log unavailable